sensor_id;sensor_type;location;lat;lon;timestamp;temperature;humidity
1786;DHT22;890;48.158;11.540;2023-03-14T00:00:31;12.80;68.90
1786;DHT22;890;48.158;11.540;2023-03-14T00:02:57;12.80;69.10
1786;DHT22;890;48.158;11.540;2023-03-14T00:05:22;12.80;69.10
1786;DHT22;890;48.158;11.540;2023-03-14T00:07:48;12.90;69.30
1786;DHT22;890;48.158;11.540;2023-03-14T00:10:14;12.80;69.30
1786;DHT22;890;48.158;11.540;2023-03-14T00:12:41;12.80;69.50
1786;DHT22;890;48.158;11.540;2023-03-14T00:15:08;12.90;69.70
1786;DHT22;890;48.158;11.540;2023-03-14T00:17:34;12.90;69.70
1786;DHT22;890;48.158;11.540;2023-03-14T00:20:00;12.90;69.70
1786;DHT22;890;48.158;11.540;2023-03-14T00:22:39;12.90;69.70
1786;DHT22;890;48.158;11.540;2023-03-14T00:25:07;13.00;70.50
1786;DHT22;890;48.158;11.540;2023-03-14T00:27:33;13.00;69.90
1786;DHT22;890;48.158;11.540;2023-03-14T00:29:59;13.00;70.10
1786;DHT22;890;48.158;11.540;2023-03-14T00:32:25;12.90;70.30
1786;DHT22;890;48.158;11.540;2023-03-14T00:34:50;12.90;70.50
1786;DHT22;890;48.158;11.540;2023-03-14T00:37:16;12.90;70.50
1786;DHT22;890;48.158;11.540;2023-03-14T00:39:42;12.90;70.60
1786;DHT22;890;48.158;11.540;2023-03-14T00:42:07;12.90;70.70
1786;DHT22;890;48.158;11.540;2023-03-14T00:44:33;12.80;70.80
1786;DHT22;890;48.158;11.540;2023-03-14T00:46:59;12.90;70.90
1786;DHT22;890;48.158;11.540;2023-03-14T00:49:24;12.90;71.10
1786;DHT22;890;48.158;11.540;2023-03-14T00:51:50;12.90;71.10
1786;DHT22;890;48.158;11.540;2023-03-14T00:54:17;12.90;71.30
1786;DHT22;890;48.158;11.540;2023-03-14T00:56:43;12.90;71.40
1786;DHT22;890;48.158;11.540;2023-03-14T00:59:08;12.80;71.40
1786;DHT22;890;48.158;11.540;2023-03-14T01:01:34;12.90;72.50
1786;DHT22;890;48.158;11.540;2023-03-14T01:04:00;12.80;71.80
1786;DHT22;890;48.158;11.540;2023-03-14T01:06:27;12.70;72.10
1786;DHT22;890;48.158;11.540;2023-03-14T01:08:53;12.70;72.50
1786;DHT22;890;48.158;11.540;2023-03-14T01:11:25;12.60;72.80
1786;DHT22;890;48.158;11.540;2023-03-14T01:13:52;12.60;73.30
1786;DHT22;890;48.158;11.540;2023-03-14T01:16:19;12.60;74.30
1786;DHT22;890;48.158;11.540;2023-03-14T01:18:46;12.40;73.80
1786;DHT22;890;48.158;11.540;2023-03-14T01:21:27;12.30;74.20
1786;DHT22;890;48.158;11.540;2023-03-14T01:23:54;12.30;74.80
1786;DHT22;890;48.158;11.540;2023-03-14T01:26:22;12.30;74.90
1786;DHT22;890;48.158;11.540;2023-03-14T01:28:49;12.40;75.50
1786;DHT22;890;48.158;11.540;2023-03-14T01:31:16;12.40;75.90
1786;DHT22;890;48.158;11.540;2023-03-14T01:33:43;12.40;76.00
1786;DHT22;890;48.158;11.540;2023-03-14T01:36:09;12.30;76.30
1786;DHT22;890;48.158;11.540;2023-03-14T01:38:36;12.30;76.80
1786;DHT22;890;48.158;11.540;2023-03-14T01:41:02;12.30;77.10
1786;DHT22;890;48.158;11.540;2023-03-14T01:43:29;12.20;77.60
1786;DHT22;890;48.158;11.540;2023-03-14T01:51:08;11.70;78.30
1786;DHT22;890;48.158;11.540;2023-03-14T01:53:35;11.50;78.80
1786;DHT22;890;48.158;11.540;2023-03-14T01:56:01;11.20;79.90
1786;DHT22;890;48.158;11.540;2023-03-14T01:58:30;10.90;80.80
1786;DHT22;890;48.158;11.540;2023-03-14T02:00:58;10.70;82.10
1786;DHT22;890;48.158;11.540;2023-03-14T02:03:25;10.60;83.40
1786;DHT22;890;48.158;11.540;2023-03-14T02:05:54;10.50;84.10
1786;DHT22;890;48.158;11.540;2023-03-14T02:08:22;10.50;84.80
1786;DHT22;890;48.158;11.540;2023-03-14T02:10:49;10.40;85.50
1786;DHT22;890;48.158;11.540;2023-03-14T02:13:16;10.30;86.40
1786;DHT22;890;48.158;11.540;2023-03-14T02:15:42;10.20;87.20
1786;DHT22;890;48.158;11.540;2023-03-14T02:18:08;10.20;87.70
1786;DHT22;890;48.158;11.540;2023-03-14T02:23:15;10.10;89.20
1786;DHT22;890;48.158;11.540;2023-03-14T02:25:48;10.10;89.60
1786;DHT22;890;48.158;11.540;2023-03-14T02:28:16;10.00;90.00
1786;DHT22;890;48.158;11.540;2023-03-14T02:30:43;10.00;90.20
1786;DHT22;890;48.158;11.540;2023-03-14T02:33:11;10.00;90.50
1786;DHT22;890;48.158;11.540;2023-03-14T02:35:42;10.10;90.80
1786;DHT22;890;48.158;11.540;2023-03-14T02:40:40;10.40;91.20
1786;DHT22;890;48.158;11.540;2023-03-14T02:43:06;10.40;91.00
1786;DHT22;890;48.158;11.540;2023-03-14T02:45:38;10.30;90.80
1786;DHT22;890;48.158;11.540;2023-03-14T02:48:09;10.30;90.80
1786;DHT22;890;48.158;11.540;2023-03-14T02:50:36;10.20;90.70
1786;DHT22;890;48.158;11.540;2023-03-14T02:53:02;10.20;90.80
1786;DHT22;890;48.158;11.540;2023-03-14T02:55:27;10.20;91.00
1786;DHT22;890;48.158;11.540;2023-03-14T02:57:53;10.10;91.10
1786;DHT22;890;48.158;11.540;2023-03-14T03:00:19;10.10;91.20
1786;DHT22;890;48.158;11.540;2023-03-14T03:02:45;10.00;91.40
1786;DHT22;890;48.158;11.540;2023-03-14T03:05:11;10.00;91.40
1786;DHT22;890;48.158;11.540;2023-03-14T03:07:37;10.00;91.40
1786;DHT22;890;48.158;11.540;2023-03-14T03:10:03;10.00;91.20
1786;DHT22;890;48.158;11.540;2023-03-14T03:12:29;10.00;91.20
1786;DHT22;890;48.158;11.540;2023-03-14T03:14:55;10.00;91.50
1786;DHT22;890;48.158;11.540;2023-03-14T03:17:20;10.10;91.80
1786;DHT22;890;48.158;11.540;2023-03-14T03:19:46;10.20;91.90
1786;DHT22;890;48.158;11.540;2023-03-14T03:22:11;10.20;91.80
1786;DHT22;890;48.158;11.540;2023-03-14T03:24:37;10.30;92.00
1786;DHT22;890;48.158;11.540;2023-03-14T03:27:02;10.40;92.00
1786;DHT22;890;48.158;11.540;2023-03-14T03:29:28;10.40;92.00
1786;DHT22;890;48.158;11.540;2023-03-14T03:31:54;10.40;91.90
1786;DHT22;890;48.158;11.540;2023-03-14T03:34:19;10.30;91.70
1786;DHT22;890;48.158;11.540;2023-03-14T03:36:45;10.30;91.80
1786;DHT22;890;48.158;11.540;2023-03-14T03:39:10;10.30;91.70
1786;DHT22;890;48.158;11.540;2023-03-14T03:41:36;10.30;91.70
1786;DHT22;890;48.158;11.540;2023-03-14T03:44:01;10.30;91.60
1786;DHT22;890;48.158;11.540;2023-03-14T03:46:27;10.30;91.60
1786;DHT22;890;48.158;11.540;2023-03-14T03:48:58;10.20;91.60
1786;DHT22;890;48.158;11.540;2023-03-14T03:51:23;10.20;91.80
1786;DHT22;890;48.158;11.540;2023-03-14T03:53:49;10.20;91.80
1786;DHT22;890;48.158;11.540;2023-03-14T03:56:15;10.20;91.80
1786;DHT22;890;48.158;11.540;2023-03-14T03:58:40;10.10;91.80
1786;DHT22;890;48.158;11.540;2023-03-14T04:01:08;10.10;91.80
1786;DHT22;890;48.158;11.540;2023-03-14T04:03:34;10.20;91.70
1786;DHT22;890;48.158;11.540;2023-03-14T04:06:03;10.20;91.50
1786;DHT22;890;48.158;11.540;2023-03-14T04:08:30;10.20;91.40
1786;DHT22;890;48.158;11.540;2023-03-14T04:11:00;10.30;91.20
1786;DHT22;890;48.158;11.540;2023-03-14T04:13:26;10.30;91.10
1786;DHT22;890;48.158;11.540;2023-03-14T04:15:53;10.30;91.00
1786;DHT22;890;48.158;11.540;2023-03-14T04:20:34;10.20;90.60
1786;DHT22;890;48.158;11.540;2023-03-14T04:23:00;10.20;90.70
1786;DHT22;890;48.158;11.540;2023-03-14T04:25:25;10.10;90.70
1786;DHT22;890;48.158;11.540;2023-03-14T04:27:51;10.10;90.70
1786;DHT22;890;48.158;11.540;2023-03-14T04:30:16;10.10;90.80
1786;DHT22;890;48.158;11.540;2023-03-14T04:32:42;10.00;90.70
1786;DHT22;890;48.158;11.540;2023-03-14T04:35:08;10.00;90.70
1786;DHT22;890;48.158;11.540;2023-03-14T04:37:33;10.10;90.70
1786;DHT22;890;48.158;11.540;2023-03-14T04:39:59;10.10;90.70
1786;DHT22;890;48.158;11.540;2023-03-14T04:42:24;10.10;90.70
1786;DHT22;890;48.158;11.540;2023-03-14T04:44:50;10.10;90.60
1786;DHT22;890;48.158;11.540;2023-03-14T04:47:16;10.10;90.50
1786;DHT22;890;48.158;11.540;2023-03-14T04:49:41;10.10;90.50
1786;DHT22;890;48.158;11.540;2023-03-14T04:52:07;10.00;90.20
1786;DHT22;890;48.158;11.540;2023-03-14T04:54:32;10.00;90.20
1786;DHT22;890;48.158;11.540;2023-03-14T04:56:58;10.00;90.20
1786;DHT22;890;48.158;11.540;2023-03-14T04:59:24;10.10;90.20
1786;DHT22;890;48.158;11.540;2023-03-14T05:01:49;10.10;90.10
1786;DHT22;890;48.158;11.540;2023-03-14T05:04:15;10.00;90.00
1786;DHT22;890;48.158;11.540;2023-03-14T05:06:41;10.00;90.00
1786;DHT22;890;48.158;11.540;2023-03-14T05:09:07;10.10;89.90
1786;DHT22;890;48.158;11.540;2023-03-14T05:11:33;10.10;89.70
1786;DHT22;890;48.158;11.540;2023-03-14T05:13:58;10.10;89.70
1786;DHT22;890;48.158;11.540;2023-03-14T05:16:24;10.10;89.60
1786;DHT22;890;48.158;11.540;2023-03-14T05:18:50;10.10;89.50
1786;DHT22;890;48.158;11.540;2023-03-14T05:21:16;10.10;89.70
1786;DHT22;890;48.158;11.540;2023-03-14T05:23:41;10.10;89.50
1786;DHT22;890;48.158;11.540;2023-03-14T05:26:07;10.00;89.10
1786;DHT22;890;48.158;11.540;2023-03-14T05:28:32;10.00;89.10
1786;DHT22;890;48.158;11.540;2023-03-14T05:30:58;10.00;89.30
1786;DHT22;890;48.158;11.540;2023-03-14T05:33:24;10.00;89.30
1786;DHT22;890;48.158;11.540;2023-03-14T05:35:49;10.00;89.40
1786;DHT22;890;48.158;11.540;2023-03-14T05:38:15;10.00;89.20
1786;DHT22;890;48.158;11.540;2023-03-14T05:40:40;10.00;89.30
1786;DHT22;890;48.158;11.540;2023-03-14T05:43:06;10.10;89.30
1786;DHT22;890;48.158;11.540;2023-03-14T05:45:33;10.10;89.00
1786;DHT22;890;48.158;11.540;2023-03-14T05:48:00;10.10;89.00
1786;DHT22;890;48.158;11.540;2023-03-14T05:50:26;10.10;88.90
1786;DHT22;890;48.158;11.540;2023-03-14T05:52:51;10.20;89.10
1786;DHT22;890;48.158;11.540;2023-03-14T05:55:17;10.20;88.60
1786;DHT22;890;48.158;11.540;2023-03-14T05:57:42;10.10;88.50
1786;DHT22;890;48.158;11.540;2023-03-14T06:00:09;10.10;89.20
1786;DHT22;890;48.158;11.540;2023-03-14T06:02:34;10.20;88.60
1786;DHT22;890;48.158;11.540;2023-03-14T06:05:00;10.20;89.00
1786;DHT22;890;48.158;11.540;2023-03-14T06:07:26;10.20;88.00
1786;DHT22;890;48.158;11.540;2023-03-14T06:09:52;10.20;87.90
1786;DHT22;890;48.158;11.540;2023-03-14T06:12:17;10.20;88.00
1786;DHT22;890;48.158;11.540;2023-03-14T06:14:43;10.20;88.00
1786;DHT22;890;48.158;11.540;2023-03-14T06:17:08;10.20;88.10
1786;DHT22;890;48.158;11.540;2023-03-14T06:19:34;10.30;88.10
1786;DHT22;890;48.158;11.540;2023-03-14T06:22:00;10.30;88.10
1786;DHT22;890;48.158;11.540;2023-03-14T06:24:25;10.30;87.90
1786;DHT22;890;48.158;11.540;2023-03-14T06:26:51;10.30;87.70
1786;DHT22;890;48.158;11.540;2023-03-14T06:29:16;10.30;87.80
1786;DHT22;890;48.158;11.540;2023-03-14T06:31:42;10.30;87.60
1786;DHT22;890;48.158;11.540;2023-03-14T06:34:07;10.30;87.40
1786;DHT22;890;48.158;11.540;2023-03-14T06:36:33;10.40;87.50
1786;DHT22;890;48.158;11.540;2023-03-14T06:38:58;10.40;87.40
1786;DHT22;890;48.158;11.540;2023-03-14T06:41:24;10.50;87.40
1786;DHT22;890;48.158;11.540;2023-03-14T06:43:51;10.60;87.20
1786;DHT22;890;48.158;11.540;2023-03-14T06:46:17;10.60;86.70
1786;DHT22;890;48.158;11.540;2023-03-14T06:48:42;10.60;86.70
1786;DHT22;890;48.158;11.540;2023-03-14T06:51:08;10.70;86.80
1786;DHT22;890;48.158;11.540;2023-03-14T06:53:34;10.70;86.60
1786;DHT22;890;48.158;11.540;2023-03-14T06:55:59;10.80;86.30
1786;DHT22;890;48.158;11.540;2023-03-14T06:58:25;10.80;85.60
1786;DHT22;890;48.158;11.540;2023-03-14T07:00:52;10.60;85.10
1786;DHT22;890;48.158;11.540;2023-03-14T07:03:18;10.60;85.00
1786;DHT22;890;48.158;11.540;2023-03-14T07:05:43;10.50;85.00
1786;DHT22;890;48.158;11.540;2023-03-14T07:08:09;10.50;85.10
1786;DHT22;890;48.158;11.540;2023-03-14T07:10:35;10.60;85.10
1786;DHT22;890;48.158;11.540;2023-03-14T07:13:00;10.60;85.00
1786;DHT22;890;48.158;11.540;2023-03-14T07:15:26;10.70;85.00
1786;DHT22;890;48.158;11.540;2023-03-14T07:17:52;10.70;84.70
1786;DHT22;890;48.158;11.540;2023-03-14T07:20:17;10.70;84.30
1786;DHT22;890;48.158;11.540;2023-03-14T07:22:43;10.80;84.50
1786;DHT22;890;48.158;11.540;2023-03-14T07:25:09;10.80;84.30
1786;DHT22;890;48.158;11.540;2023-03-14T07:27:37;10.90;84.10
1786;DHT22;890;48.158;11.540;2023-03-14T07:30:03;10.90;84.00
1786;DHT22;890;48.158;11.540;2023-03-14T07:32:29;10.90;83.70
1786;DHT22;890;48.158;11.540;2023-03-14T07:34:54;11.00;83.60
1786;DHT22;890;48.158;11.540;2023-03-14T07:37:20;11.00;83.30
1786;DHT22;890;48.158;11.540;2023-03-14T07:39:45;11.00;83.00
1786;DHT22;890;48.158;11.540;2023-03-14T07:42:11;11.10;83.00
1786;DHT22;890;48.158;11.540;2023-03-14T07:44:37;11.20;82.80
1786;DHT22;890;48.158;11.540;2023-03-14T07:47:02;11.30;82.60
1786;DHT22;890;48.158;11.540;2023-03-14T07:49:28;11.40;82.00
1786;DHT22;890;48.158;11.540;2023-03-14T07:51:54;11.40;81.80
1786;DHT22;890;48.158;11.540;2023-03-14T07:54:19;11.50;81.70
1786;DHT22;890;48.158;11.540;2023-03-14T07:56:45;11.60;81.70
1786;DHT22;890;48.158;11.540;2023-03-14T07:59:11;11.60;81.30
1786;DHT22;890;48.158;11.540;2023-03-14T08:01:37;11.70;81.20
1786;DHT22;890;48.158;11.540;2023-03-14T08:04:03;11.60;80.70
1786;DHT22;890;48.158;11.540;2023-03-14T08:06:29;11.50;80.50
1786;DHT22;890;48.158;11.540;2023-03-14T08:08:55;11.60;80.60
1786;DHT22;890;48.158;11.540;2023-03-14T08:11:20;11.70;80.40
1786;DHT22;890;48.158;11.540;2023-03-14T08:13:46;11.80;80.40
1786;DHT22;890;48.158;11.540;2023-03-14T08:16:18;11.80;79.70
1786;DHT22;890;48.158;11.540;2023-03-14T08:18:45;11.70;79.60
1786;DHT22;890;48.158;11.540;2023-03-14T08:21:11;11.70;79.30
1786;DHT22;890;48.158;11.540;2023-03-14T08:23:37;11.80;79.40
1786;DHT22;890;48.158;11.540;2023-03-14T08:26:02;11.80;79.10
1786;DHT22;890;48.158;11.540;2023-03-14T08:28:28;11.80;78.90
1786;DHT22;890;48.158;11.540;2023-03-14T08:30:57;11.80;78.70
1786;DHT22;890;48.158;11.540;2023-03-14T08:33:23;11.80;78.60
1786;DHT22;890;48.158;11.540;2023-03-14T08:35:55;11.90;78.10
1786;DHT22;890;48.158;11.540;2023-03-14T08:38:21;11.80;77.50
1786;DHT22;890;48.158;11.540;2023-03-14T08:40:47;11.80;77.40
1786;DHT22;890;48.158;11.540;2023-03-14T08:43:13;11.80;77.40
1786;DHT22;890;48.158;11.540;2023-03-14T08:45:38;11.70;77.10
1786;DHT22;890;48.158;11.540;2023-03-14T08:48:04;11.70;77.20
1786;DHT22;890;48.158;11.540;2023-03-14T08:50:30;11.90;76.80
1786;DHT22;890;48.158;11.540;2023-03-14T08:52:55;11.90;76.60
1786;DHT22;890;48.158;11.540;2023-03-14T08:55:25;11.90;76.50
1786;DHT22;890;48.158;11.540;2023-03-14T08:57:52;11.90;76.30
1786;DHT22;890;48.158;11.540;2023-03-14T09:00:19;11.90;76.00
1786;DHT22;890;48.158;11.540;2023-03-14T09:02:44;11.90;75.80
1786;DHT22;890;48.158;11.540;2023-03-14T09:05:11;11.90;75.60
1786;DHT22;890;48.158;11.540;2023-03-14T09:07:37;12.00;75.90
1786;DHT22;890;48.158;11.540;2023-03-14T09:10:03;12.20;75.90
1786;DHT22;890;48.158;11.540;2023-03-14T09:12:29;12.30;75.40
1786;DHT22;890;48.158;11.540;2023-03-14T09:14:55;12.30;75.00
1786;DHT22;890;48.158;11.540;2023-03-14T09:17:21;12.30;74.80
1786;DHT22;890;48.158;11.540;2023-03-14T09:19:47;12.30;74.70
1786;DHT22;890;48.158;11.540;2023-03-14T09:22:12;12.30;74.50
1786;DHT22;890;48.158;11.540;2023-03-14T09:24:38;12.20;74.40
1786;DHT22;890;48.158;11.540;2023-03-14T09:27:04;12.30;74.10
1786;DHT22;890;48.158;11.540;2023-03-14T09:29:30;12.30;73.80
1786;DHT22;890;48.158;11.540;2023-03-14T09:31:55;12.40;73.60
1786;DHT22;890;48.158;11.540;2023-03-14T09:34:23;12.30;73.00
1786;DHT22;890;48.158;11.540;2023-03-14T09:36:48;12.30;72.60
1786;DHT22;890;48.158;11.540;2023-03-14T09:39:14;12.30;72.60
1786;DHT22;890;48.158;11.540;2023-03-14T09:41:43;12.40;72.40
1786;DHT22;890;48.158;11.540;2023-03-14T09:46:37;12.50;72.20
1786;DHT22;890;48.158;11.540;2023-03-14T09:49:09;12.60;71.80
1786;DHT22;890;48.158;11.540;2023-03-14T09:51:36;12.60;71.60
1786;DHT22;890;48.158;11.540;2023-03-14T09:54:04;12.70;71.40
1786;DHT22;890;48.158;11.540;2023-03-14T09:56:32;12.70;71.20
1786;DHT22;890;48.158;11.540;2023-03-14T09:59:00;12.80;71.30
1786;DHT22;890;48.158;11.540;2023-03-14T10:01:30;12.90;70.90
1786;DHT22;890;48.158;11.540;2023-03-14T10:04:00;12.90;70.60
1786;DHT22;890;48.158;11.540;2023-03-14T10:06:29;13.00;70.40
1786;DHT22;890;48.158;11.540;2023-03-14T10:08:55;13.00;70.20
1786;DHT22;890;48.158;11.540;2023-03-14T10:11:23;13.00;70.30
1786;DHT22;890;48.158;11.540;2023-03-14T10:14:05;13.00;70.20
1786;DHT22;890;48.158;11.540;2023-03-14T10:16:34;13.10;69.90
1786;DHT22;890;48.158;11.540;2023-03-14T10:19:13;13.20;70.50
1786;DHT22;890;48.158;11.540;2023-03-14T10:21:41;13.30;70.50
1786;DHT22;890;48.158;11.540;2023-03-14T10:24:32;13.60;71.10
1786;DHT22;890;48.158;11.540;2023-03-14T10:29:28;15.30;86.30
1786;DHT22;890;48.158;11.540;2023-03-14T10:32:01;17.10;94.30
1786;DHT22;890;48.158;11.540;2023-03-14T10:34:35;18.00;84.60
1786;DHT22;890;48.158;11.540;2023-03-14T10:37:27;18.20;72.10
1786;DHT22;890;48.158;11.540;2023-03-14T10:39:55;17.60;66.60
1786;DHT22;890;48.158;11.540;2023-03-14T10:42:24;17.10;67.30
1786;DHT22;890;48.158;11.540;2023-03-14T10:44:55;17.00;69.70
1786;DHT22;890;48.158;11.540;2023-03-14T10:47:23;17.10;69.30
1786;DHT22;890;48.158;11.540;2023-03-14T10:49:50;16.60;66.20
1786;DHT22;890;48.158;11.540;2023-03-14T10:52:26;16.10;63.80
1786;DHT22;890;48.158;11.540;2023-03-14T10:54:57;15.50;61.60
1786;DHT22;890;48.158;11.540;2023-03-14T10:57:24;15.20;61.30
1786;DHT22;890;48.158;11.540;2023-03-14T10:59:51;14.90;60.70
1786;DHT22;890;48.158;11.540;2023-03-14T11:05:46;14.40;60.60
1786;DHT22;890;48.158;11.540;2023-03-14T11:11:25;14.20;61.30
1786;DHT22;890;48.158;11.540;2023-03-14T11:14:18;14.30;60.80
1786;DHT22;890;48.158;11.540;2023-03-14T11:19:19;14.20;60.50
1786;DHT22;890;48.158;11.540;2023-03-14T11:21:48;14.20;60.40
1786;DHT22;890;48.158;11.540;2023-03-14T11:29:41;14.40;59.60
1786;DHT22;890;48.158;11.540;2023-03-14T11:32:19;14.70;61.20
1786;DHT22;890;48.158;11.540;2023-03-14T11:34:52;15.30;63.40
1786;DHT22;890;48.158;11.540;2023-03-14T11:37:32;15.40;61.10
1786;DHT22;890;48.158;11.540;2023-03-14T11:40:22;15.50;59.00
1786;DHT22;890;48.158;11.540;2023-03-14T11:43:15;15.20;58.30
1786;DHT22;890;48.158;11.540;2023-03-14T11:45:42;15.30;58.30
1786;DHT22;890;48.158;11.540;2023-03-14T11:48:33;15.00;57.70
1786;DHT22;890;48.158;11.540;2023-03-14T11:51:02;14.70;57.40
1786;DHT22;890;48.158;11.540;2023-03-14T11:56:40;14.40;57.50
1786;DHT22;890;48.158;11.540;2023-03-14T11:59:19;14.30;57.30
1786;DHT22;890;48.158;11.540;2023-03-14T12:01:58;14.10;57.50
1786;DHT22;890;48.158;11.540;2023-03-14T12:07:04;14.10;57.40
1786;DHT22;890;48.158;11.540;2023-03-14T12:09:34;15.50;59.20
1786;DHT22;890;48.158;11.540;2023-03-14T12:12:03;14.10;57.80
1786;DHT22;890;48.158;11.540;2023-03-14T12:14:34;14.10;57.50
1786;DHT22;890;48.158;11.540;2023-03-14T12:19:39;14.10;57.20
1786;DHT22;890;48.158;11.540;2023-03-14T12:24:36;13.80;57.20
1786;DHT22;890;48.158;11.540;2023-03-14T12:27:04;15.30;58.50
1786;DHT22;890;48.158;11.540;2023-03-14T12:29:31;14.80;58.00
1786;DHT22;890;48.158;11.540;2023-03-14T12:32:22;14.00;57.20
1786;DHT22;890;48.158;11.540;2023-03-14T12:34:49;13.90;57.10
1786;DHT22;890;48.158;11.540;2023-03-14T12:37:37;13.90;57.20
1786;DHT22;890;48.158;11.540;2023-03-14T12:40:35;14.00;57.10
1786;DHT22;890;48.158;11.540;2023-03-14T12:43:26;14.10;57.30
1786;DHT22;890;48.158;11.540;2023-03-14T12:49:08;14.20;57.30
1786;DHT22;890;48.158;11.540;2023-03-14T12:51:42;14.20;57.10
1786;DHT22;890;48.158;11.540;2023-03-14T12:59:55;14.00;57.30
1786;DHT22;890;48.158;11.540;2023-03-14T13:02:38;14.10;57.50
1786;DHT22;890;48.158;11.540;2023-03-14T13:05:24;14.00;57.50
1786;DHT22;890;48.158;11.540;2023-03-14T13:10:29;13.60;57.50
1786;DHT22;890;48.158;11.540;2023-03-14T13:13:15;13.60;57.80
1786;DHT22;890;48.158;11.540;2023-03-14T13:15:45;13.50;58.50
1786;DHT22;890;48.158;11.540;2023-03-14T13:21:18;13.50;58.20
1786;DHT22;890;48.158;11.540;2023-03-14T13:24:03;13.50;58.40
1786;DHT22;890;48.158;11.540;2023-03-14T13:26:39;13.50;58.40
1786;DHT22;890;48.158;11.540;2023-03-14T13:31:47;13.60;58.60
1786;DHT22;890;48.158;11.540;2023-03-14T13:34:12;13.40;58.50
1786;DHT22;890;48.158;11.540;2023-03-14T13:36:38;12.90;59.40
1786;DHT22;890;48.158;11.540;2023-03-14T13:39:13;12.50;60.40
1786;DHT22;890;48.158;11.540;2023-03-14T13:41:43;12.20;61.20
1786;DHT22;890;48.158;11.540;2023-03-14T13:44:26;11.90;62.90
1786;DHT22;890;48.158;11.540;2023-03-14T13:47:00;11.30;64.40
1786;DHT22;890;48.158;11.540;2023-03-14T13:49:27;11.30;66.10
1786;DHT22;890;48.158;11.540;2023-03-14T13:51:54;11.40;66.40
1786;DHT22;890;48.158;11.540;2023-03-14T13:54:21;11.00;65.60
1786;DHT22;890;48.158;11.540;2023-03-14T13:56:47;11.10;65.60
1786;DHT22;890;48.158;11.540;2023-03-14T13:59:28;11.20;65.90
1786;DHT22;890;48.158;11.540;2023-03-14T14:01:55;11.20;65.70
1786;DHT22;890;48.158;11.540;2023-03-14T14:04:24;11.10;65.90
1786;DHT22;890;48.158;11.540;2023-03-14T14:06:57;10.90;66.50
1786;DHT22;890;48.158;11.540;2023-03-14T14:09:45;10.70;68.40
1786;DHT22;890;48.158;11.540;2023-03-14T14:12:15;10.30;69.30
1786;DHT22;890;48.158;11.540;2023-03-14T14:15:21;10.10;70.00
1786;DHT22;890;48.158;11.540;2023-03-14T14:17:51;9.90;72.00
1786;DHT22;890;48.158;11.540;2023-03-14T14:20:28;9.70;72.90
1786;DHT22;890;48.158;11.540;2023-03-14T14:23:02;9.40;74.60
1786;DHT22;890;48.158;11.540;2023-03-14T14:25:31;9.10;76.30
1786;DHT22;890;48.158;11.540;2023-03-14T14:27:57;9.00;77.80
1786;DHT22;890;48.158;11.540;2023-03-14T14:30:31;9.00;78.60
1786;DHT22;890;48.158;11.540;2023-03-14T14:33:20;8.90;79.70
1786;DHT22;890;48.158;11.540;2023-03-14T14:35:58;8.60;80.60
1786;DHT22;890;48.158;11.540;2023-03-14T14:38:25;8.40;81.20
1786;DHT22;890;48.158;11.540;2023-03-14T14:41:00;8.20;82.60
1786;DHT22;890;48.158;11.540;2023-03-14T14:43:28;8.00;83.90
1786;DHT22;890;48.158;11.540;2023-03-14T14:45:56;8.00;84.20
1786;DHT22;890;48.158;11.540;2023-03-14T14:48:25;7.80;84.70
1786;DHT22;890;48.158;11.540;2023-03-14T14:51:05;7.70;86.00
1786;DHT22;890;48.158;11.540;2023-03-14T14:53:40;7.50;87.30
1786;DHT22;890;48.158;11.540;2023-03-14T14:56:21;7.50;87.80
1786;DHT22;890;48.158;11.540;2023-03-14T14:58:50;7.50;88.40
1786;DHT22;890;48.158;11.540;2023-03-14T15:01:17;7.50;88.80
1786;DHT22;890;48.158;11.540;2023-03-14T15:03:46;7.50;89.30
1786;DHT22;890;48.158;11.540;2023-03-14T15:06:13;7.50;89.60
1786;DHT22;890;48.158;11.540;2023-03-14T15:08:39;7.50;90.00
1786;DHT22;890;48.158;11.540;2023-03-14T15:11:05;7.50;90.10
1786;DHT22;890;48.158;11.540;2023-03-14T15:13:31;7.60;90.20
1786;DHT22;890;48.158;11.540;2023-03-14T15:15:57;7.70;90.40
1786;DHT22;890;48.158;11.540;2023-03-14T15:18:25;7.80;90.60
1786;DHT22;890;48.158;11.540;2023-03-14T15:20:51;7.80;90.40
1786;DHT22;890;48.158;11.540;2023-03-14T15:23:19;7.90;90.40
1786;DHT22;890;48.158;11.540;2023-03-14T15:25:44;7.90;90.40
1786;DHT22;890;48.158;11.540;2023-03-14T15:28:19;7.90;90.50
1786;DHT22;890;48.158;11.540;2023-03-14T15:30:48;7.80;90.80
1786;DHT22;890;48.158;11.540;2023-03-14T15:33:14;7.80;91.10
1786;DHT22;890;48.158;11.540;2023-03-14T15:35:40;7.80;91.50
1786;DHT22;890;48.158;11.540;2023-03-14T15:38:12;7.70;91.90
1786;DHT22;890;48.158;11.540;2023-03-14T15:40:38;7.50;92.10
1786;DHT22;890;48.158;11.540;2023-03-14T15:43:04;7.40;92.20
1786;DHT22;890;48.158;11.540;2023-03-14T15:45:30;7.20;92.30
1786;DHT22;890;48.158;11.540;2023-03-14T15:47:55;7.10;92.60
1786;DHT22;890;48.158;11.540;2023-03-14T15:50:21;7.00;92.70
1786;DHT22;890;48.158;11.540;2023-03-14T15:52:47;7.00;92.90
1786;DHT22;890;48.158;11.540;2023-03-14T15:55:12;6.90;93.00
1786;DHT22;890;48.158;11.540;2023-03-14T15:57:43;6.90;93.10
1786;DHT22;890;48.158;11.540;2023-03-14T16:00:12;6.90;92.90
1786;DHT22;890;48.158;11.540;2023-03-14T16:02:39;6.90;92.80
1786;DHT22;890;48.158;11.540;2023-03-14T16:05:10;7.00;92.60
1786;DHT22;890;48.158;11.540;2023-03-14T16:07:36;7.00;92.40
1786;DHT22;890;48.158;11.540;2023-03-14T16:10:03;7.00;92.40
1786;DHT22;890;48.158;11.540;2023-03-14T16:12:30;7.00;91.90
1786;DHT22;890;48.158;11.540;2023-03-14T16:14:56;7.00;91.60
1786;DHT22;890;48.158;11.540;2023-03-14T16:17:22;7.10;91.50
1786;DHT22;890;48.158;11.540;2023-03-14T16:19:47;7.10;91.20
1786;DHT22;890;48.158;11.540;2023-03-14T16:22:13;7.20;91.00
1786;DHT22;890;48.158;11.540;2023-03-14T16:24:38;7.50;90.80
1786;DHT22;890;48.158;11.540;2023-03-14T16:27:04;7.30;90.30
1786;DHT22;890;48.158;11.540;2023-03-14T16:29:30;7.30;90.20
1786;DHT22;890;48.158;11.540;2023-03-14T16:31:56;7.40;89.00
1786;DHT22;890;48.158;11.540;2023-03-14T16:34:22;7.40;87.60
1786;DHT22;890;48.158;11.540;2023-03-14T16:36:47;7.50;86.10
1786;DHT22;890;48.158;11.540;2023-03-14T16:39:16;7.50;83.80
1786;DHT22;890;48.158;11.540;2023-03-14T16:41:42;7.50;82.00
1786;DHT22;890;48.158;11.540;2023-03-14T16:44:08;7.60;80.50
1786;DHT22;890;48.158;11.540;2023-03-14T16:46:33;7.60;79.50
1786;DHT22;890;48.158;11.540;2023-03-14T16:49:01;7.70;79.20
1786;DHT22;890;48.158;11.540;2023-03-14T16:51:27;7.80;79.20
1786;DHT22;890;48.158;11.540;2023-03-14T16:53:53;8.60;78.40
1786;DHT22;890;48.158;11.540;2023-03-14T16:56:18;7.90;76.50
1786;DHT22;890;48.158;11.540;2023-03-14T16:58:44;8.00;76.10
1786;DHT22;890;48.158;11.540;2023-03-14T17:01:12;8.10;75.50
1786;DHT22;890;48.158;11.540;2023-03-14T17:03:38;7.90;74.70
1786;DHT22;890;48.158;11.540;2023-03-14T17:06:04;7.90;74.00
1786;DHT22;890;48.158;11.540;2023-03-14T17:08:30;8.00;74.10
1786;DHT22;890;48.158;11.540;2023-03-14T17:10:56;8.00;74.00